createdAt,value
2018-07-17T00:00:53.755Z,59.07
2018-07-17T00:02:00.585Z,59.05
2018-07-17T00:03:07.657Z,59.10
2018-07-17T00:04:14.559Z,59.10
2018-07-17T00:05:21.310Z,59.24
2018-07-17T00:06:28.175Z,59.22
2018-07-17T00:07:34.946Z,59.27
2018-07-17T00:08:41.942Z,59.26
2018-07-17T00:09:48.706Z,59.36
2018-07-17T00:10:55.519Z,59.41
2018-07-17T00:12:02.375Z,59.41
2018-07-17T00:13:09.387Z,59.40
2018-07-17T00:14:16.162Z,59.46
2018-07-17T00:15:22.917Z,59.45
2018-07-17T00:16:29.718Z,59.50
2018-07-17T00:17:36.462Z,59.59
2018-07-17T00:18:43.262Z,59.49
2018-07-17T00:19:50.194Z,59.40
2018-07-17T00:20:57.051Z,59.41
2018-07-17T00:22:03.829Z,59.31
2018-07-17T00:23:10.669Z,59.41
2018-07-17T00:24:17.462Z,59.42
2018-07-17T00:25:24.224Z,59.51
2018-07-17T00:26:31.027Z,59.56
2018-07-17T00:27:37.881Z,59.48
2018-07-17T00:28:44.629Z,59.62
2018-07-17T00:29:51.419Z,59.57
2018-07-17T00:30:58.327Z,59.61
2018-07-17T00:32:05.116Z,59.58
2018-07-17T00:33:11.873Z,59.54
2018-07-17T00:34:18.614Z,59.54
2018-07-17T00:35:25.541Z,59.58
2018-07-17T00:36:32.296Z,59.65
2018-07-17T00:37:39.039Z,59.63
2018-07-17T00:38:45.835Z,59.63
2018-07-17T00:39:52.582Z,59.58
2018-07-17T00:40:59.755Z,59.50
2018-07-17T00:42:06.552Z,59.57
2018-07-17T00:43:13.417Z,59.69
2018-07-17T00:44:20.232Z,59.70
2018-07-17T00:45:26.989Z,59.63
2018-07-17T00:46:33.912Z,59.63
2018-07-17T00:47:40.678Z,59.71
2018-07-17T00:48:47.463Z,59.72
2018-07-17T00:49:54.317Z,59.72
2018-07-17T00:51:01.108Z,59.67
2018-07-17T00:52:07.886Z,59.62
2018-07-17T00:53:14.614Z,59.67
2018-07-17T00:54:21.390Z,59.73
2018-07-17T00:55:28.151Z,59.76
2018-07-17T00:56:34.927Z,59.77
2018-07-17T00:57:41.842Z,59.68
2018-07-17T00:58:48.952Z,59.67
2018-07-17T00:59:55.689Z,59.73
2018-07-17T01:01:02.461Z,59.80
2018-07-17T01:02:09.222Z,59.82
2018-07-17T01:03:16.258Z,59.82
2018-07-17T01:04:23.209Z,59.92
2018-07-17T01:05:30.131Z,59.81
2018-07-17T01:06:37.018Z,59.79
2018-07-17T01:07:43.957Z,59.91
2018-07-17T01:08:50.798Z,59.85
2018-07-17T01:09:57.779Z,59.94
2018-07-17T01:11:04.766Z,59.87
2018-07-17T01:12:11.780Z,59.85
2018-07-17T01:13:18.514Z,59.87
2018-07-17T01:14:25.543Z,59.87
2018-07-17T01:15:32.394Z,59.84
2018-07-17T01:16:39.166Z,59.79
2018-07-17T01:17:46.020Z,59.83
2018-07-17T01:18:52.799Z,59.81
2018-07-17T01:19:59.640Z,59.78
2018-07-17T01:21:06.433Z,59.90
2018-07-17T01:22:13.219Z,59.85
2018-07-17T01:23:20.029Z,59.85
2018-07-17T01:24:26.903Z,59.84
2018-07-17T01:25:33.679Z,59.85
2018-07-17T01:26:40.762Z,59.81
2018-07-17T01:27:47.630Z,59.83
2018-07-17T01:28:54.490Z,59.92
2018-07-17T01:30:01.257Z,59.92
2018-07-17T01:31:08.092Z,59.98
2018-07-17T01:32:14.944Z,59.95
2018-07-17T01:33:21.726Z,59.92
2018-07-17T01:34:28.566Z,59.92
2018-07-17T01:35:35.377Z,59.93
2018-07-17T01:36:42.534Z,59.92
2018-07-17T01:37:48.875Z,59.95
2018-07-17T01:38:55.650Z,59.96
2018-07-17T01:40:02.477Z,59.90
2018-07-17T01:41:09.250Z,59.98
2018-07-17T01:42:16.053Z,60.06
2018-07-17T01:43:22.894Z,60.12
2018-07-17T01:44:29.647Z,60.18
2018-07-17T01:45:36.459Z,60.23
2018-07-17T01:46:43.354Z,60.26
2018-07-17T01:47:50.511Z,60.33
2018-07-17T01:48:57.281Z,60.36
2018-07-17T01:50:04.083Z,60.50
2018-07-17T01:51:10.927Z,60.43
2018-07-17T01:52:17.722Z,60.50
2018-07-17T01:53:24.481Z,60.46
2018-07-17T01:54:31.358Z,60.43
2018-07-17T01:55:38.138Z,60.52
2018-07-17T01:56:44.882Z,60.48
2018-07-17T01:57:51.789Z,60.45
2018-07-17T01:58:58.569Z,60.47
2018-07-17T02:00:05.322Z,60.50
2018-07-17T02:01:12.218Z,60.60
2018-07-17T02:02:19.003Z,60.67
2018-07-17T02:03:25.807Z,60.68
2018-07-17T02:04:32.666Z,60.68
2018-07-17T02:05:39.443Z,60.67
2018-07-17T02:06:46.214Z,60.64
2018-07-17T02:07:53.110Z,60.72
2018-07-17T02:08:59.889Z,60.65
2018-07-17T02:10:06.867Z,60.67
2018-07-17T02:11:13.898Z,60.61
2018-07-17T02:12:20.678Z,60.65
2018-07-17T02:13:27.468Z,60.64
2018-07-17T02:14:34.300Z,60.71
2018-07-17T02:15:41.070Z,60.67
2018-07-17T02:16:47.852Z,60.70
2018-07-17T02:17:54.631Z,60.73
2018-07-17T02:19:01.511Z,60.74
2018-07-17T02:20:08.339Z,60.77
2018-07-17T02:21:15.091Z,60.84
2018-07-17T02:22:21.930Z,60.90
2018-07-17T02:23:28.724Z,60.95
2018-07-17T02:24:35.534Z,60.89
2018-07-17T02:25:42.386Z,60.90
2018-07-17T02:26:49.134Z,60.94
2018-07-17T02:27:55.879Z,60.94
2018-07-17T02:29:02.622Z,60.95
2018-07-17T02:30:09.854Z,60.99
2018-07-17T02:31:16.618Z,61.01
2018-07-17T02:32:23.370Z,61.05
2018-07-17T02:33:30.253Z,61.05
2018-07-17T02:34:37.110Z,61.11
2018-07-17T02:35:43.885Z,61.15
2018-07-17T02:36:50.723Z,61.15
2018-07-17T02:37:57.486Z,61.11
2018-07-17T02:39:04.222Z,61.10
2018-07-17T02:40:11.055Z,61.08
2018-07-17T02:41:17.912Z,61.15
2018-07-17T02:42:24.749Z,61.18
2018-07-17T02:43:31.478Z,61.20
2018-07-17T02:44:38.357Z,61.28
2018-07-17T02:45:45.123Z,61.33
2018-07-17T02:46:51.887Z,61.39
2018-07-17T02:47:58.807Z,61.48
2018-07-17T02:49:05.539Z,61.45
2018-07-17T02:50:12.329Z,61.48
2018-07-17T02:51:19.082Z,61.48
2018-07-17T02:52:25.858Z,61.48
2018-07-17T02:53:32.686Z,61.48
2018-07-17T02:54:39.494Z,61.48
2018-07-17T02:55:46.305Z,61.55
2018-07-17T02:56:53.107Z,61.60
2018-07-17T02:57:59.918Z,61.57
2018-07-17T02:59:06.758Z,61.58
2018-07-17T03:00:13.504Z,61.55
2018-07-17T03:01:20.241Z,61.61
2018-07-17T03:02:27.017Z,61.64
2018-07-17T03:03:33.858Z,61.72
2018-07-17T03:04:40.595Z,61.71
2018-07-17T03:05:47.380Z,61.71
2018-07-17T03:06:54.132Z,61.69
2018-07-17T03:08:00.948Z,61.75
2018-07-17T03:09:07.734Z,61.73
2018-07-17T03:10:14.479Z,61.79
2018-07-17T03:11:21.212Z,61.81
2018-07-17T03:12:27.996Z,61.88
2018-07-17T03:13:34.745Z,61.81
2018-07-17T03:14:41.526Z,61.76
2018-07-17T03:15:48.254Z,61.83
2018-07-17T03:16:55.128Z,61.78
2018-07-17T03:18:01.935Z,61.81
2018-07-17T03:19:08.697Z,61.79
2018-07-17T03:20:15.541Z,61.85
2018-07-17T03:21:22.310Z,61.89
2018-07-17T03:22:29.094Z,61.88
2018-07-17T03:23:36.016Z,61.81
2018-07-17T03:24:42.850Z,61.82
2018-07-17T03:25:49.766Z,61.83
2018-07-17T03:26:56.539Z,61.75
2018-07-17T03:28:03.326Z,61.80
2018-07-17T03:29:10.450Z,61.83
2018-07-17T03:30:17.398Z,61.82
2018-07-17T03:31:24.155Z,61.93
2018-07-17T03:32:31.010Z,61.96
2018-07-17T03:33:37.834Z,61.95
2018-07-17T03:34:44.635Z,61.97
2018-07-17T03:35:51.439Z,62.07
2018-07-17T03:36:58.247Z,62.19
2018-07-17T03:38:05.054Z,62.17
2018-07-17T03:39:11.888Z,62.20
2018-07-17T03:40:18.687Z,62.25
2018-07-17T03:41:25.537Z,62.39
2018-07-17T03:42:32.381Z,62.49
2018-07-17T03:43:39.414Z,62.57
2018-07-17T03:44:46.267Z,62.62
2018-07-17T03:45:53.047Z,62.65
2018-07-17T03:46:59.838Z,62.78
2018-07-17T03:48:06.503Z,62.80
2018-07-17T03:49:13.394Z,62.85
2018-07-17T03:50:20.153Z,62.93
2018-07-17T03:51:26.918Z,62.95
2018-07-17T03:52:33.798Z,63.01
2018-07-17T03:53:40.626Z,63.02
2018-07-17T03:54:47.432Z,63.09
2018-07-17T03:55:54.343Z,63.12
2018-07-17T03:57:01.239Z,63.20
2018-07-17T03:58:08.048Z,63.24
2018-07-17T03:59:14.841Z,63.27
2018-07-17T04:00:21.675Z,63.37
2018-07-17T04:01:28.494Z,63.42
2018-07-17T04:02:35.322Z,63.41
2018-07-17T04:03:42.158Z,63.43
2018-07-17T04:04:48.963Z,63.47
2018-07-17T04:05:55.737Z,63.58
2018-07-17T04:07:02.564Z,63.66
2018-07-17T04:08:09.422Z,63.71
2018-07-17T04:09:16.265Z,63.77
2018-07-17T04:10:23.022Z,63.82
2018-07-17T04:11:29.838Z,63.77
2018-07-17T04:12:36.654Z,63.83
2018-07-17T04:13:43.417Z,63.88
2018-07-17T04:14:50.299Z,63.90
2018-07-17T04:15:57.099Z,63.94
2018-07-17T04:17:03.855Z,63.94
2018-07-17T04:18:10.726Z,63.99
2018-07-17T04:19:17.515Z,64.07
2018-07-17T04:20:24.311Z,64.13
2018-07-17T04:21:31.386Z,64.08
2018-07-17T04:22:38.292Z,64.15
2018-07-17T04:23:45.074Z,64.18
2018-07-17T04:24:51.881Z,64.14
2018-07-17T04:25:58.719Z,64.26
2018-07-17T04:27:05.479Z,64.37
2018-07-17T04:28:12.255Z,64.38
2018-07-17T04:29:19.034Z,64.30
2018-07-17T04:30:26.129Z,64.38
2018-07-17T04:31:32.945Z,64.31
2018-07-17T04:32:39.726Z,64.40
2018-07-17T04:33:46.500Z,64.56
2018-07-17T04:34:53.405Z,64.65
2018-07-17T04:36:00.192Z,64.66
2018-07-17T04:37:06.963Z,64.73
2018-07-17T04:38:13.835Z,64.82
2018-07-17T04:39:20.622Z,64.83
2018-07-17T04:40:27.376Z,64.82
2018-07-17T04:41:34.238Z,64.88
2018-07-17T04:42:41.067Z,65.00
2018-07-17T04:43:47.817Z,65.05
2018-07-17T04:44:54.704Z,64.92
2018-07-17T04:46:01.481Z,64.90
2018-07-17T04:47:08.405Z,65.05
2018-07-17T04:48:15.168Z,65.03
2018-07-17T04:49:22.218Z,65.12
2018-07-17T04:50:28.987Z,65.15
2018-07-17T04:51:35.750Z,65.06
2018-07-17T04:52:42.488Z,65.07
2018-07-17T04:53:49.275Z,65.08
2018-07-17T04:54:56.043Z,65.09
2018-07-17T04:56:02.840Z,65.12
2018-07-17T04:57:09.665Z,65.17
2018-07-17T04:58:16.425Z,65.15
2018-07-17T04:59:23.458Z,65.15
2018-07-17T05:00:30.213Z,65.16
2018-07-17T05:01:37.070Z,65.40
2018-07-17T05:02:43.835Z,65.56
2018-07-17T05:03:50.594Z,65.71
2018-07-17T05:04:57.369Z,65.75
2018-07-17T05:06:04.213Z,65.84
2018-07-17T05:07:10.990Z,65.89
2018-07-17T05:08:17.754Z,65.93
2018-07-17T05:09:24.498Z,66.00
2018-07-17T05:10:31.258Z,66.00
2018-07-17T05:11:38.046Z,66.11
2018-07-17T05:12:45.020Z,66.06
2018-07-17T05:13:51.808Z,66.09
2018-07-17T05:14:58.606Z,66.35
2018-07-17T05:16:05.447Z,66.47
2018-07-17T05:17:12.285Z,66.55
2018-07-17T05:18:19.619Z,66.52
2018-07-17T05:19:25.957Z,66.46
2018-07-17T05:20:32.715Z,66.47
2018-07-17T05:21:39.458Z,66.50
2018-07-17T05:22:46.300Z,66.56
2018-07-17T05:23:53.047Z,66.77
2018-07-17T05:24:59.815Z,66.93
2018-07-17T05:26:06.683Z,66.88
2018-07-17T05:27:13.488Z,66.86
2018-07-17T05:28:20.321Z,66.74
2018-07-17T05:29:27.113Z,66.77
2018-07-17T05:30:33.892Z,66.95
2018-07-17T05:31:40.643Z,67.09
2018-07-17T05:32:47.516Z,67.25
2018-07-17T05:33:54.211Z,67.39
2018-07-17T05:35:01.035Z,67.50
2018-07-17T05:36:07.937Z,67.56
2018-07-17T05:37:14.726Z,67.69
2018-07-17T05:38:21.735Z,67.85
2018-07-17T05:39:28.542Z,67.78
2018-07-17T05:40:35.311Z,67.77
2018-07-17T05:41:42.190Z,67.80
2018-07-17T05:42:48.969Z,68.07
2018-07-17T05:43:55.740Z,68.15
2018-07-17T05:45:02.621Z,68.17
2018-07-17T05:46:09.741Z,68.24
2018-07-17T05:47:16.494Z,68.27
2018-07-17T05:48:23.282Z,68.37
2018-07-17T05:49:30.181Z,68.54
2018-07-17T05:50:36.928Z,68.68
2018-07-17T05:51:43.729Z,68.72
2018-07-17T05:52:50.487Z,68.69
2018-07-17T05:53:57.251Z,68.72
2018-07-17T05:55:04.038Z,68.70
2018-07-17T05:56:10.846Z,68.77
2018-07-17T05:57:18.003Z,69.08
2018-07-17T05:58:24.846Z,69.31
2018-07-17T05:59:31.682Z,69.45
2018-07-17T06:00:38.448Z,69.62
2018-07-17T06:01:45.211Z,69.76
2018-07-17T06:02:51.972Z,69.95
2018-07-17T06:03:58.729Z,70.02
2018-07-17T06:05:05.574Z,70.13
2018-07-17T06:06:12.398Z,70.27
2018-07-17T06:07:19.203Z,70.27
2018-07-17T06:08:25.970Z,70.35
2018-07-17T06:09:32.767Z,70.48
2018-07-17T06:10:39.521Z,70.60
2018-07-17T06:11:46.318Z,70.66
2018-07-17T06:12:53.491Z,70.84
2018-07-17T06:14:00.287Z,71.07
2018-07-17T06:15:07.063Z,71.29
2018-07-17T06:16:13.857Z,71.45
2018-07-17T06:17:20.599Z,71.58
2018-07-17T06:18:27.437Z,71.74
2018-07-17T06:19:34.259Z,71.96
2018-07-17T06:20:41.073Z,72.06
2018-07-17T06:21:47.858Z,72.21
2018-07-17T06:22:54.630Z,72.29
2018-07-17T06:24:01.391Z,72.37
2018-07-17T06:25:08.317Z,72.57
2018-07-17T06:26:15.487Z,72.67
2018-07-17T06:27:22.370Z,72.79
2018-07-17T06:28:29.205Z,72.92
2018-07-17T06:29:35.951Z,73.07
2018-07-17T06:30:42.778Z,73.25
2018-07-17T06:31:49.636Z,73.32
2018-07-17T06:32:56.431Z,73.50
2018-07-17T06:34:03.204Z,73.67
2018-07-17T06:35:10.090Z,73.95
2018-07-17T06:36:16.858Z,74.06
2018-07-17T06:37:23.635Z,74.26
2018-07-17T06:38:30.555Z,74.51
2018-07-17T06:39:37.344Z,74.69
2018-07-17T06:40:44.126Z,74.73
2018-07-17T06:41:50.918Z,74.94
2018-07-17T06:42:57.684Z,75.09
2018-07-17T06:44:04.488Z,75.30
2018-07-17T06:45:11.343Z,75.46
2018-07-17T06:46:18.115Z,75.48
2018-07-17T06:47:24.894Z,75.69
2018-07-17T06:48:31.726Z,75.75
2018-07-17T06:49:38.619Z,75.78
2018-07-17T06:50:45.531Z,75.83
2018-07-17T06:51:52.358Z,75.98
2018-07-17T06:52:59.119Z,76.17
2018-07-17T06:54:05.910Z,76.25
2018-07-17T06:55:12.750Z,76.41
2018-07-17T06:56:19.674Z,76.56
2018-07-17T06:57:26.802Z,76.69
2018-07-17T06:58:33.534Z,76.88
2018-07-17T06:59:40.302Z,77.00
2018-07-17T07:00:47.098Z,77.15
2018-07-17T07:01:53.935Z,77.33
2018-07-17T07:03:00.737Z,77.56
2018-07-17T07:04:07.592Z,77.78
2018-07-17T07:05:14.430Z,77.87
2018-07-17T07:06:21.267Z,77.86
2018-07-17T07:07:28.028Z,77.94
2018-07-17T07:08:34.831Z,78.13
2018-07-17T07:09:41.591Z,78.32
2018-07-17T07:10:48.616Z,78.15
2018-07-17T07:11:55.430Z,78.26
2018-07-17T07:13:02.262Z,78.38
2018-07-17T07:14:09.320Z,78.52
2018-07-17T07:15:16.079Z,78.76
2018-07-17T07:16:22.854Z,78.82
2018-07-17T07:17:29.631Z,79.00
2018-07-17T07:18:36.394Z,79.22
2018-07-17T07:19:43.235Z,79.09
2018-07-17T07:20:50.008Z,79.00
2018-07-17T07:21:56.759Z,79.04
2018-07-17T07:23:03.515Z,78.88
2018-07-17T07:24:10.334Z,78.84
2018-07-17T07:25:17.164Z,78.92
2018-07-17T07:26:23.955Z,79.05
2018-07-17T07:27:30.782Z,79.19
2018-07-17T07:28:37.638Z,78.98
2018-07-17T07:29:44.410Z,78.83
2018-07-17T07:30:51.221Z,78.97
2018-07-17T07:31:58.031Z,79.06
2018-07-17T07:33:04.811Z,79.15
2018-07-17T07:34:11.606Z,79.22
2018-07-17T07:35:18.430Z,79.14
2018-07-17T07:36:25.254Z,79.23
2018-07-17T07:37:32.067Z,79.21
2018-07-17T07:38:38.811Z,79.25
2018-07-17T07:39:45.619Z,79.18
2018-07-17T07:40:52.410Z,79.00
2018-07-17T07:41:59.230Z,78.99
2018-07-17T07:43:06.040Z,78.89
2018-07-17T07:44:12.930Z,78.86
2018-07-17T07:45:19.832Z,78.74
2018-07-17T07:46:26.738Z,78.93
2018-07-17T07:47:33.527Z,79.16
2018-07-17T07:48:40.287Z,79.40
2018-07-17T07:49:47.298Z,79.51
2018-07-17T07:50:54.155Z,79.48
2018-07-17T07:52:01.093Z,79.30
2018-07-17T07:53:07.911Z,78.91
2018-07-17T07:54:15.054Z,78.76
2018-07-17T07:55:21.889Z,78.57
2018-07-17T07:56:28.693Z,78.52
2018-07-17T07:57:35.451Z,78.53
2018-07-17T07:58:42.323Z,78.40
2018-07-17T07:59:49.125Z,78.49
2018-07-17T08:00:56.145Z,78.55
2018-07-17T08:02:03.019Z,78.29
2018-07-17T08:03:09.918Z,78.19
2018-07-17T08:04:16.787Z,78.07
2018-07-17T08:05:23.716Z,78.10
2018-07-17T08:06:30.582Z,78.11
2018-07-17T08:07:37.512Z,78.24
2018-07-17T08:08:44.359Z,78.50
2018-07-17T08:09:51.113Z,78.14
2018-07-17T08:10:58.019Z,77.98
2018-07-17T08:12:04.853Z,78.03
2018-07-17T08:13:11.782Z,78.02
2018-07-17T08:14:18.619Z,78.07
2018-07-17T08:15:25.599Z,77.97
2018-07-17T08:16:32.515Z,77.79
2018-07-17T08:17:39.394Z,77.70
2018-07-17T08:18:46.207Z,77.66
2018-07-17T08:19:53.027Z,77.59
2018-07-17T08:20:59.866Z,77.44
2018-07-17T08:22:06.682Z,77.18
2018-07-17T08:23:13.506Z,77.10
2018-07-17T08:24:20.353Z,76.93
2018-07-17T08:25:27.094Z,76.70
2018-07-17T08:26:33.902Z,76.47
2018-07-17T08:27:40.740Z,76.22
2018-07-17T08:28:47.530Z,75.99
2018-07-17T08:29:54.313Z,75.75
2018-07-17T08:31:01.210Z,75.61
2018-07-17T08:32:08.120Z,75.42
2018-07-17T08:33:15.010Z,75.18
2018-07-17T08:34:21.798Z,74.84
2018-07-17T08:35:28.543Z,74.76
2018-07-17T08:36:35.309Z,74.73
2018-07-17T08:37:42.089Z,74.27
2018-07-17T08:38:48.886Z,74.16
2018-07-17T08:39:55.670Z,74.00
2018-07-17T08:41:02.522Z,73.66
2018-07-17T08:42:09.372Z,73.19
2018-07-17T08:43:16.159Z,73.20
2018-07-17T08:44:22.965Z,72.88
2018-07-17T08:45:29.718Z,72.60
2018-07-17T08:46:36.507Z,72.25
2018-07-17T08:47:43.262Z,71.90
2018-07-17T08:48:50.062Z,71.90
2018-07-17T08:49:56.895Z,71.69
2018-07-17T08:51:03.718Z,71.40
2018-07-17T08:52:10.519Z,71.30
2018-07-17T08:53:17.325Z,71.07
2018-07-17T08:54:24.142Z,70.98
2018-07-17T08:55:30.942Z,70.69
2018-07-17T08:56:37.737Z,70.37
2018-07-17T08:57:44.539Z,70.23
2018-07-17T08:58:51.389Z,69.83
2018-07-17T08:59:58.339Z,69.80
2018-07-17T09:01:05.194Z,69.59
2018-07-17T09:02:11.965Z,69.43
2018-07-17T09:03:18.727Z,69.31
2018-07-17T09:04:25.510Z,69.08
2018-07-17T09:05:32.398Z,68.75
2018-07-17T09:06:39.230Z,68.62
2018-07-17T09:07:46.099Z,68.40
2018-07-17T09:08:52.859Z,68.34
2018-07-17T09:10:00.078Z,68.12
2018-07-17T09:11:06.579Z,68.02
2018-07-17T09:12:13.703Z,67.81
2018-07-17T09:13:20.637Z,67.86
2018-07-17T09:14:27.568Z,67.81
2018-07-17T09:15:34.571Z,67.86
2018-07-17T09:16:41.610Z,67.73
2018-07-17T09:17:48.497Z,67.46
2018-07-17T09:18:55.978Z,67.16
2018-07-17T09:20:02.740Z,67.14
2018-07-17T09:21:09.520Z,67.29
2018-07-17T09:22:16.315Z,67.42
2018-07-17T09:23:23.213Z,67.02
2018-07-17T09:24:30.079Z,66.82
2018-07-17T09:25:37.189Z,66.70
2018-07-17T09:26:43.832Z,66.64
2018-07-17T09:27:50.693Z,66.37
2018-07-17T09:28:57.478Z,65.90
2018-07-17T09:30:04.383Z,65.62
2018-07-17T09:31:11.382Z,65.68
2018-07-17T09:32:18.159Z,65.62
2018-07-17T09:33:25.052Z,65.83
2018-07-17T09:34:31.982Z,65.34
2018-07-17T09:35:38.721Z,65.39
2018-07-17T09:36:45.562Z,65.42
2018-07-17T09:37:52.662Z,65.34
2018-07-17T09:38:59.436Z,65.25
2018-07-17T09:40:06.254Z,64.91
2018-07-17T09:41:13.127Z,64.91
2018-07-17T09:42:20.286Z,64.60
2018-07-17T09:43:27.046Z,64.79
2018-07-17T09:44:33.903Z,64.02
2018-07-17T09:45:40.738Z,64.04
2018-07-17T09:46:47.561Z,63.87
2018-07-17T09:47:54.392Z,63.60
2018-07-17T09:49:01.206Z,63.39
2018-07-17T09:50:08.146Z,63.40
2018-07-17T09:51:15.218Z,63.14
2018-07-17T09:52:22.054Z,62.85
2018-07-17T09:53:28.830Z,62.74
2018-07-17T09:54:35.638Z,62.47
2018-07-17T09:55:42.517Z,62.34
2018-07-17T09:56:49.331Z,62.24
2018-07-17T09:57:56.093Z,62.16
2018-07-17T09:59:02.882Z,62.06
2018-07-17T10:00:09.838Z,61.99
2018-07-17T10:01:16.714Z,62.25
2018-07-17T10:02:23.716Z,62.13
2018-07-17T10:03:30.725Z,61.99
2018-07-17T10:04:37.474Z,62.00
2018-07-17T10:05:44.271Z,61.44
2018-07-17T10:06:51.094Z,61.34
2018-07-17T10:07:57.906Z,61.30
2018-07-17T10:09:04.698Z,60.98
2018-07-17T10:10:11.499Z,61.00
2018-07-17T10:11:18.321Z,60.93
2018-07-17T10:12:25.094Z,60.49
2018-07-17T10:13:31.970Z,60.28
2018-07-17T10:14:38.825Z,60.01
2018-07-17T10:15:47.219Z,60.29
2018-07-17T10:17:08.803Z,59.86
2018-07-17T10:18:15.890Z,59.52
2018-07-17T10:19:22.697Z,59.46
2018-07-17T10:20:29.571Z,59.29
2018-07-17T10:21:38.105Z,59.18
2018-07-17T10:22:43.236Z,58.94
2018-07-17T10:23:50.038Z,58.71
2018-07-17T10:24:57.212Z,58.44
2018-07-17T10:26:04.024Z,58.32
2018-07-17T10:27:10.957Z,58.12
2018-07-17T10:28:17.701Z,58.17
2018-07-17T10:29:24.514Z,58.24
2018-07-17T10:30:31.352Z,57.92
2018-07-17T10:31:38.377Z,57.89
2018-07-17T10:32:45.224Z,57.92
2018-07-17T10:33:52.178Z,57.64
2018-07-17T10:34:59.160Z,57.58
2018-07-17T10:36:06.119Z,57.49
2018-07-17T10:37:12.951Z,57.25
2018-07-17T10:38:20.060Z,57.35
2018-07-17T10:39:26.878Z,56.77
2018-07-17T10:40:33.735Z,56.57
2018-07-17T10:41:40.646Z,56.67
2018-07-17T10:42:47.551Z,56.64
2018-07-17T10:43:54.390Z,56.30
2018-07-17T10:45:01.155Z,56.48
2018-07-17T10:46:08.290Z,55.97
2018-07-17T10:47:15.386Z,55.93
2018-07-17T10:48:22.149Z,55.90
2018-07-17T10:49:28.961Z,55.80
2018-07-17T10:50:35.765Z,56.01
2018-07-17T10:51:42.575Z,55.92
2018-07-17T10:52:49.390Z,55.89
2018-07-17T10:53:56.126Z,55.77
2018-07-17T10:55:02.902Z,55.88
2018-07-17T10:56:10.111Z,55.63
2018-07-17T10:57:16.862Z,55.55
2018-07-17T10:58:23.650Z,55.41
2018-07-17T10:59:30.395Z,55.48
2018-07-17T11:00:37.478Z,55.14
2018-07-17T11:01:44.235Z,55.32
2018-07-17T11:02:51.085Z,55.24
2018-07-17T11:03:57.961Z,54.98
2018-07-17T11:05:04.781Z,54.89
2018-07-17T11:06:11.667Z,54.84
2018-07-17T11:07:18.449Z,54.77
2018-07-17T11:08:25.279Z,54.71
2018-07-17T11:09:32.035Z,54.69
2018-07-17T11:10:38.902Z,54.25
2018-07-17T11:11:45.698Z,54.32
2018-07-17T11:12:52.788Z,54.22
2018-07-17T11:13:59.831Z,54.17
2018-07-17T11:15:06.635Z,54.10
2018-07-17T11:16:13.424Z,54.46
2018-07-17T11:17:20.345Z,54.40
2018-07-17T11:18:28.314Z,54.62
2018-07-17T11:19:34.135Z,54.73
2018-07-17T11:20:40.971Z,54.60
2018-07-17T11:21:47.942Z,54.54
2018-07-17T11:22:54.809Z,54.50
2018-07-17T11:24:01.574Z,54.56
2018-07-17T11:25:08.522Z,54.68
2018-07-17T11:26:15.329Z,54.76
2018-07-17T11:27:22.104Z,54.73
2018-07-17T11:28:28.881Z,54.71
2018-07-17T11:29:35.630Z,54.75
2018-07-17T11:30:42.483Z,54.54
2018-07-17T11:31:49.351Z,54.68
2018-07-17T11:32:56.178Z,54.49
2018-07-17T11:34:03.609Z,54.47
2018-07-17T11:35:09.986Z,54.25
2018-07-17T11:36:16.884Z,54.04
2018-07-17T11:37:23.674Z,53.94
2018-07-17T11:38:30.663Z,53.97
2018-07-17T11:39:37.418Z,53.86
2018-07-17T11:40:44.174Z,53.64
2018-07-17T11:41:51.025Z,53.55
2018-07-17T11:42:57.828Z,53.52
2018-07-17T11:44:04.685Z,53.50
2018-07-17T11:45:11.467Z,53.93
2018-07-17T11:46:18.244Z,53.88
2018-07-17T11:47:25.088Z,53.96
2018-07-17T11:48:32.137Z,53.71
2018-07-17T11:49:38.957Z,53.77
2018-07-17T11:50:45.783Z,53.65
2018-07-17T11:51:52.605Z,53.34
2018-07-17T11:52:59.422Z,52.91
2018-07-17T11:54:06.516Z,52.38
2018-07-17T11:55:13.312Z,52.29
2018-07-17T11:56:20.285Z,52.12
2018-07-17T11:57:27.127Z,52.02
2018-07-17T11:58:33.975Z,51.81
2018-07-17T11:59:40.901Z,51.48
2018-07-17T12:00:47.563Z,51.67
2018-07-17T12:01:54.425Z,51.24
2018-07-17T12:03:01.442Z,50.98
2018-07-17T12:04:08.722Z,50.85
2018-07-17T12:05:15.071Z,50.80
2018-07-17T12:06:22.133Z,50.59
2018-07-17T12:07:28.982Z,50.53
2018-07-17T12:08:35.750Z,50.06
2018-07-17T12:09:44.464Z,49.95
2018-07-17T12:10:49.350Z,50.01
2018-07-17T12:11:57.584Z,50.19
2018-07-17T12:13:03.335Z,49.92
2018-07-17T12:14:10.178Z,50.08
2018-07-17T12:15:17.063Z,50.03
2018-07-17T12:16:23.958Z,50.31
2018-07-17T12:17:30.759Z,49.81
2018-07-17T12:18:37.534Z,49.87
2018-07-17T12:19:44.378Z,49.89
2018-07-17T12:20:51.190Z,49.63
2018-07-17T12:21:57.994Z,49.39
2018-07-17T12:23:04.890Z,49.29
2018-07-17T12:24:11.685Z,49.41
2018-07-17T12:25:18.514Z,49.29
2018-07-17T12:26:25.273Z,49.20
2018-07-17T12:27:32.127Z,49.11
2018-07-17T12:28:38.946Z,48.76
2018-07-17T12:29:45.679Z,48.75
2018-07-17T12:30:52.630Z,48.66
2018-07-17T12:31:59.463Z,48.72
2018-07-17T12:33:06.230Z,49.10
2018-07-17T12:34:12.981Z,49.13
2018-07-17T12:35:19.762Z,48.74
2018-07-17T12:36:26.565Z,48.58
2018-07-17T12:37:33.430Z,48.82
2018-07-17T12:38:40.272Z,48.87
2018-07-17T12:39:47.071Z,48.73
2018-07-17T12:40:53.866Z,48.55
2018-07-17T12:42:00.657Z,48.48
2018-07-17T12:43:07.527Z,48.55
2018-07-17T12:44:14.298Z,48.46
2018-07-17T12:45:21.092Z,48.39
2018-07-17T12:46:27.880Z,48.46
2018-07-17T12:47:34.806Z,48.48
2018-07-17T12:48:41.582Z,48.41
2018-07-17T12:49:48.367Z,48.21
2018-07-17T12:50:55.310Z,48.26
2018-07-17T12:52:02.078Z,48.05
2018-07-17T12:53:08.889Z,48.05
2018-07-17T12:54:15.732Z,47.90
2018-07-17T12:55:22.737Z,47.86
2018-07-17T12:56:29.554Z,47.88
2018-07-17T12:57:36.297Z,47.97
2018-07-17T12:58:43.165Z,47.79
2018-07-17T12:59:51.557Z,47.66
2018-07-17T13:00:56.797Z,47.69
2018-07-17T13:02:03.645Z,47.81
2018-07-17T13:03:10.805Z,47.68
2018-07-17T13:04:17.718Z,47.82
2018-07-17T13:05:26.702Z,47.77
2018-07-17T13:06:31.583Z,47.99
2018-07-17T13:07:39.142Z,48.22
2018-07-17T13:08:45.528Z,48.34
2018-07-17T13:09:52.335Z,48.47
2018-07-17T13:10:59.134Z,48.57
2018-07-17T13:12:06.296Z,48.52
2018-07-17T13:13:13.063Z,48.41
2018-07-17T13:14:19.790Z,48.23
2018-07-17T13:15:26.626Z,48.23
2018-07-17T13:16:33.446Z,48.38
2018-07-17T13:17:40.296Z,48.58
2018-07-17T13:18:47.094Z,48.88
2018-07-17T13:19:53.923Z,49.06
2018-07-17T13:21:00.690Z,48.75
2018-07-17T13:22:07.509Z,48.69
2018-07-17T13:23:14.404Z,48.91
2018-07-17T13:24:21.182Z,49.15
2018-07-17T13:25:27.962Z,48.80
2018-07-17T13:26:34.847Z,49.03
2018-07-17T13:27:41.638Z,48.66
2018-07-17T13:28:48.458Z,48.33
2018-07-17T13:29:55.319Z,48.14
2018-07-17T13:31:02.041Z,48.21
2018-07-17T13:32:08.827Z,48.11
2018-07-17T13:33:15.615Z,48.16
2018-07-17T13:34:22.356Z,48.15
2018-07-17T13:35:29.165Z,48.35
2018-07-17T13:36:35.911Z,48.04
2018-07-17T13:37:42.674Z,48.16
2018-07-17T13:38:49.570Z,48.23
2018-07-17T13:39:56.302Z,47.99
2018-07-17T13:41:03.031Z,48.12
2018-07-17T13:42:09.769Z,48.17
2018-07-17T13:43:16.540Z,48.14
2018-07-17T13:44:23.418Z,48.20
2018-07-17T13:45:30.159Z,48.29
2018-07-17T13:46:36.933Z,48.33
2018-07-17T13:47:43.729Z,48.31
2018-07-17T13:48:50.549Z,48.39
2018-07-17T13:49:57.315Z,48.29
2018-07-17T13:51:04.082Z,48.30
2018-07-17T13:52:10.830Z,48.44
2018-07-17T13:53:17.693Z,48.59
2018-07-17T13:54:24.422Z,48.29
2018-07-17T13:55:31.324Z,48.41
2018-07-17T13:56:38.011Z,48.43
2018-07-17T13:57:44.822Z,48.20
2018-07-17T13:58:51.563Z,48.40
2018-07-17T13:59:58.371Z,48.42
2018-07-17T14:01:05.096Z,48.37
2018-07-17T14:02:11.967Z,48.45
2018-07-17T14:03:19.948Z,48.69
2018-07-17T14:04:25.693Z,48.54
2018-07-17T14:05:32.473Z,48.30
2018-07-17T14:06:39.313Z,48.25
2018-07-17T14:07:46.054Z,48.27
2018-07-17T14:08:53.054Z,48.04
2018-07-17T14:09:59.818Z,48.05
2018-07-17T14:11:06.636Z,47.76
2018-07-17T14:12:14.497Z,47.70
2018-07-17T14:13:20.174Z,47.73
2018-07-17T14:14:26.925Z,47.84
2018-07-17T14:15:33.841Z,47.93
2018-07-17T14:16:40.814Z,47.81
2018-07-17T14:17:47.671Z,47.75
2018-07-17T14:18:54.469Z,47.76
2018-07-17T14:20:01.198Z,47.76
2018-07-17T14:21:08.166Z,47.80